createdAt,value
2019-02-28T15:09:54.751Z,973.36
2019-02-28T15:10:55.168Z,973.42
2019-02-28T15:11:54.338Z,973.32
2019-02-28T15:12:55.351Z,973.32
2019-02-28T15:13:54.404Z,973.35
2019-02-28T15:14:54.373Z,973.41
2019-02-28T15:15:54.613Z,973.46
2019-02-28T15:16:54.367Z,973.42
2019-02-28T15:17:54.368Z,973.41
2019-02-28T15:18:54.375Z,973.43
2019-02-28T15:19:57.068Z,973.46
2019-02-28T15:20:54.428Z,973.40
2019-02-28T15:21:54.440Z,973.47
2019-02-28T15:22:56.168Z,973.38
2019-02-28T15:23:54.417Z,973.44
2019-02-28T15:24:54.429Z,973.43
2019-02-28T15:25:54.983Z,973.42
2019-02-28T15:26:54.480Z,973.39
2019-02-28T15:27:54.511Z,973.42
2019-02-28T15:28:54.437Z,973.45
2019-02-28T15:29:55.511Z,973.44
2019-02-28T15:30:54.478Z,973.43
2019-02-28T15:31:54.495Z,973.45
2019-02-28T15:32:55.599Z,973.48
2019-02-28T15:33:54.331Z,973.52
2019-02-28T15:34:54.514Z,973.51
2019-02-28T15:35:54.546Z,973.53
2019-02-28T15:36:55.526Z,973.48
2019-02-28T15:37:54.353Z,973.50
2019-02-28T15:38:54.351Z,973.50
2019-02-28T15:39:54.736Z,973.48
2019-02-28T15:40:55.765Z,973.51
2019-02-28T15:41:54.390Z,973.55
2019-02-28T15:42:54.790Z,973.46
2019-02-28T15:43:54.464Z,973.38
2019-02-28T15:44:54.376Z,973.47
2019-02-28T15:45:54.386Z,973.49
2019-02-28T15:46:55.751Z,973.41
2019-02-28T15:47:55.430Z,973.51
2019-02-28T15:48:54.488Z,973.50
2019-02-28T15:49:54.415Z,973.58
2019-02-28T15:50:54.416Z,973.49
2019-02-28T15:51:54.418Z,973.46
2019-02-28T15:52:54.474Z,973.56
2019-02-28T15:53:54.719Z,973.52
2019-02-28T15:54:56.942Z,973.58
2019-02-28T15:55:54.454Z,973.59
2019-02-28T15:56:55.429Z,973.59
2019-02-28T15:57:54.482Z,973.53
2019-02-28T15:58:54.483Z,973.51
2019-02-28T15:59:54.518Z,973.59
2019-02-28T16:00:56.643Z,973.48
2019-02-28T16:01:54.494Z,973.53
2019-02-28T16:02:54.557Z,973.49
2019-02-28T16:03:54.552Z,973.46
2019-02-28T16:04:57.734Z,973.45
2019-02-28T16:05:56.216Z,973.48
2019-02-28T16:06:57.928Z,973.37
2019-02-28T16:07:54.362Z,973.45
2019-02-28T16:08:54.359Z,973.45
2019-02-28T16:09:57.031Z,973.47
2019-02-28T16:10:54.439Z,973.46
2019-02-28T16:11:54.572Z,973.49
2019-02-28T16:12:54.354Z,973.54
2019-02-28T16:13:54.379Z,973.44
2019-02-28T16:14:54.476Z,973.47
2019-02-28T16:15:54.449Z,973.48
2019-02-28T16:16:56.815Z,973.42
2019-02-28T16:17:54.407Z,973.42
2019-02-28T16:18:54.401Z,973.54
2019-02-28T16:19:56.190Z,973.50
2019-02-28T16:20:54.454Z,973.47
2019-02-28T16:21:54.463Z,973.50
2019-02-28T16:22:54.468Z,973.48
2019-02-28T16:23:54.504Z,973.48
2019-02-28T16:24:54.456Z,973.58
2019-02-28T16:25:54.471Z,973.59
2019-02-28T16:26:56.696Z,973.58
2019-02-28T16:27:54.519Z,973.62
2019-02-28T16:28:54.484Z,973.61
2019-02-28T16:29:55.614Z,973.60
2019-02-28T16:30:54.507Z,973.61
2019-02-28T16:31:54.540Z,973.65
2019-02-28T16:32:54.526Z,973.60
2019-02-28T16:33:57.729Z,973.60
2019-02-28T16:34:54.513Z,973.72
2019-02-28T16:35:54.549Z,973.71
2019-02-28T16:36:57.408Z,973.62
2019-02-28T16:37:54.574Z,973.61
2019-02-28T16:38:54.355Z,973.64
2019-02-28T16:39:54.353Z,973.66
2019-02-28T16:40:57.688Z,973.69
2019-02-28T16:41:54.605Z,973.73
2019-02-28T16:42:54.418Z,973.75
2019-02-28T16:43:55.570Z,973.73
2019-02-28T16:44:54.400Z,973.68
2019-02-28T16:45:54.411Z,973.70
2019-02-28T16:46:54.866Z,973.71
2019-02-28T16:47:55.611Z,973.69
2019-02-28T16:48:54.434Z,973.67
2019-02-28T16:49:54.900Z,973.74
2019-02-28T16:50:56.770Z,973.68
2019-02-28T16:51:54.656Z,973.72
2019-02-28T16:52:54.484Z,973.76
2019-02-28T16:53:54.470Z,973.77
2019-02-28T16:54:56.305Z,973.81
2019-02-28T16:55:54.523Z,973.83
2019-02-28T16:56:54.558Z,973.82
2019-02-28T16:57:54.783Z,973.88
2019-02-28T16:58:57.304Z,973.84
2019-02-28T16:59:54.724Z,973.85
2019-02-28T17:00:54.535Z,973.92
2019-02-28T17:01:54.834Z,973.91
2019-02-28T17:02:54.543Z,973.92
2019-02-28T17:03:54.529Z,973.95
2019-02-28T17:04:54.564Z,973.96
2019-02-28T17:05:54.559Z,973.99
2019-02-28T17:06:55.559Z,973.99
2019-02-28T17:07:54.676Z,974.03
2019-02-28T17:08:55.331Z,974.02
